• Join FlightAware (Why Join?)
  • Login
  • US Flag 
02:06AM EDT


 

Airport Tracker/Info


-or-


 

Live Flight TrackerFlight Track Log ✈ AWE3899 ✈ 21-Apr-2013 ✈ KOAJ - KCLT

Flight Track Log - Related Links

Times and Time Zones

All times are in EDT time to prevent confusion due to time zone crossing. See the AWE3899 flight status page for this flight to view local times or setup timezone preferences in your user account.

Time Position Orientation Groundspeed Altitude Reporting Facility
EDT Latitude Longitude Course Direction KTS MPH feet Rate Location/Type
07:59PM 34.8697 -77.6528 231° Southwest 208 239 3,900  Level Washington Center
08:00PM 34.6578 -77.8460 230° Southwest  Level FlightAware Approximate
08:00PM 34.8267 -77.7250 234° Southwest 217 250 7,200  Level Washington Center
08:01PM 34.6020 -77.9258 230° Southwest  Level FlightAware Approximate
08:01PM 34.7958 -77.8203 249° West 257 296 9,500  Level Washington Center
08:02PM 34.5463 -78.0055 231° Southwest  Level FlightAware Approximate
08:02PM 34.7711 -77.9131 252° West 281 323 11,400  Level Washington Center
08:03PM 34.4922 -78.0868 231° Southwest  Level FlightAware Approximate
08:03PM 34.7397 -78.0183 250° West 311 358 13,000  Level Washington Center
08:04PM 34.4397 -78.1655 231° Southwest  Level FlightAware Approximate
08:04PM 34.7083 -78.1261 251° West 329 379 15,000  Level Washington Center
08:05PM 34.3873 -78.2441 231° Southwest  Level FlightAware Approximate
08:06PM 34.6561 -78.2992 250° West 359 413 15,900  Level Jacksonville Center
08:07PM 34.6228 -78.4144 251° West 364 419 16,000  Climbing Jacksonville Center
08:08PM 34.5864 -78.5122 246° West 351 404 16,000  Level Jacksonville Center
08:09PM 34.5544 -78.6147 249° West 336 387 16,000  Level Jacksonville Center
08:10PM 34.5264 -78.7117 251° West 326 375 16,000  Level Jacksonville Center
08:11PM 34.4947 -78.8217 251° West 326 375 16,000  Level Jacksonville Center
08:12PM 34.4625 -78.9239 249° West 333 383 16,000  Level Jacksonville Center
08:13PM 34.4322 -79.0258 250° West 333 383 16,000  Level Jacksonville Center
08:14PM 34.4019 -79.1228 249° West 326 375 16,000  Level Jacksonville Center
08:15PM 34.3753 -79.2144 251° West 307 353 16,000  Level Jacksonville Center
08:16PM 34.3486 -79.3036 250° West 301 346 16,000  Level Jacksonville Center
08:17PM 34.3008 -79.3786 232° Southwest 293 337 16,000  Level Jacksonville Center
08:18PM 34.2489 -79.4661 234° Southwest 293 337 16,000  Level Jacksonville Center
08:19PM 34.1967 -79.5433 231° Southwest 298 343 16,000  Level Jacksonville Center
08:20PM 34.1783 -79.6369 257° West 293 337 16,000  Level Jacksonville Center
08:21PM 34.1706 -79.7403 265° West 293 337 16,000  Level Jacksonville Center
08:22PM 34.2000 -79.8419 289° West 307 353 16,000  Level Jacksonville Center
08:23PM 34.2769 -79.9172 321° Northwest 323 372 16,000  Level Jacksonville Center
08:24PM 34.3539 -79.9900 322° Northwest 334 384 16,000 -420 Level Jacksonville Center
08:25PM 34.4244 -80.0633 319° Northwest 334 384 15,200 -1,140 Descending Jacksonville Center
08:26PM 34.4911 -80.1289 321° Northwest 334 384 13,800 -1,500 Descending FAA TRACON SMA TRACON (SMA)
08:26PM 34.5133 -80.1508 321° Northwest 334 384 13,300 -1,500 Descending FAA TRACON SMA TRACON (SMA)
08:26PM 34.5358 -80.1722 322° Northwest 335 386 12,800 -1,500 Descending FAA TRACON SMA TRACON (SMA)
08:27PM 34.5633 -80.2008 319° Northwest 336 387 12,300 -1,500 Descending FAA TRACON SMA TRACON (SMA)
08:27PM 34.5858 -80.2231 321° Northwest 336 387 11,800 -1,500 Descending FAA TRACON SMA TRACON (SMA)
08:27PM 34.6075 -80.2444 321° Northwest 331 381 11,300 -1,200 Descending FAA TRACON SMA TRACON (SMA)
08:28PM 34.6311 -80.2697 319° Northwest 295 339 11,000 -480 Descending FAA TRACON SMA TRACON (SMA)
08:28PM 34.6506 -80.2883 322° Northwest 292 336 11,000  Level FAA TRACON SMA TRACON (SMA)
08:28PM 34.6703 -80.3069 322° Northwest 287 330 11,000  Level FAA TRACON SMA TRACON (SMA)
08:29PM 34.6942 -80.3306 321° Northwest 287 330 11,000  Level FAA TRACON SMA TRACON (SMA)
08:29PM 34.7125 -80.3503 319° Northwest 288 331 11,000 -300 Level FAA TRACON SMA TRACON (SMA)
08:29PM 34.7297 -80.3717 314° West 286 329 10,800 -1,200 Descending FAA TRACON SMA TRACON (SMA)
08:30PM 34.7500 -80.3997 311° West 283 326 10,200 -1,500 Descending FAA TRACON SMA TRACON (SMA)
08:30PM 34.7667 -80.4203 315° West 279 321 9,800 -1,380 Descending FAA TRACON SMA TRACON (SMA)
08:30PM 34.7781 -80.4442 300° West 262 302 9,300 -1,500 Descending FAA TRACON SMA TRACON (SMA)
08:31PM 34.7906 -80.4753 296° West 262 302 8,800 -1,380 Descending FAA TRACON SMA TRACON (SMA)
08:31PM 34.7994 -80.5017 292° West 271 312 8,400 -1,380 Descending FAA TRACON SMA TRACON (SMA)
08:31PM 34.8094 -80.5267 296° West 269 310 7,900 -1,500 Descending FAA TRACON SMA TRACON (SMA)
08:32PM 34.8211 -80.5597 293° West 273 314 7,400 -1,380 Descending FAA TRACON SMA TRACON (SMA)
08:32PM 34.8283 -80.5850 289° West 273 314 7,000 -1,380 Descending FAA TRACON SMA TRACON (SMA)
08:32PM 34.8386 -80.6133 294° West 275 316 6,500 -1,440 Descending FAA TRACON SMA TRACON (SMA)
08:33PM 34.8472 -80.6403 291° West 276 318 6,100 -780 Descending FAA TRACON SMA TRACON (SMA)
08:33PM 34.8575 -80.6733 291° West 274 315 6,000 -180 Descending FAA TRACON SMA TRACON (SMA)
08:33PM 34.8658 -80.6994 291° West 271 312 6,000 -300 Level FAA TRACON SMA TRACON (SMA)
08:34PM 34.8764 -80.7317 292° West 267 307 5,800 -1,080 Descending FAA TRACON SMA TRACON (SMA)
08:34PM 34.8847 -80.7581 291° West 269 310 5,300 -1,380 Descending FAA TRACON SMA TRACON (SMA)
08:34PM 34.8931 -80.7850 291° West 272 313 4,900 -1,320 Descending FAA TRACON SMA TRACON (SMA)
08:35PM 34.9025 -80.8172 290° West 275 316 4,400 -1,320 Descending FAA TRACON SMA TRACON (SMA)
08:35PM 34.9111 -80.8464 290° West 277 319 4,000 -600 Descending FAA TRACON SMA TRACON (SMA)
08:35PM 34.9217 -80.8708 298° West 264 304 4,000  Level FAA TRACON SMA TRACON (SMA)
08:36PM 34.9439 -80.8911 323° Northwest 264 304 4,000  Level FAA TRACON SMA TRACON (SMA)
08:36PM 34.9603 -80.9092 318° Northwest 253 291 4,000  Level FAA TRACON SMA TRACON (SMA)
08:36PM 34.9753 -80.9258 318° Northwest 233 268 4,000  Level FAA TRACON SMA TRACON (SMA)
08:37PM 34.9950 -80.9353 339° North 195 224 4,000  Level FAA TRACON SMA TRACON (SMA)
08:37PM 35.0106 -80.9369 355° North 177 204 4,000  Level FAA TRACON SMA TRACON (SMA)
08:37PM 35.0256 -80.9375 358° North 173 199 4,000  Level FAA TRACON SMA TRACON (SMA)
08:38PM 35.0403 -80.9369 North 174 200 4,000 -780 Level FAA TRACON SMA TRACON (SMA)
08:38PM 35.0594 -80.9381 357° North 179 206 3,500 -1,200 Descending FAA TRACON SMA TRACON (SMA)
08:38PM 35.0756 -80.9400 354° North 185 213 3,200 -900 Descending FAA TRACON SMA TRACON (SMA)
08:39PM 35.0914 -80.9419 354° North 184 212 2,900 -1,080 Descending FAA TRACON SMA TRACON (SMA)
08:39PM 35.1108 -80.9436 356° North 182 209 2,500 -1,200 Descending FAA TRACON SMA TRACON (SMA)